sensor_id;sensor_type;location;lat;lon;timestamp;temperature;humidity
1526;DHT22;756;49.982;8.240;2022-09-06T00:01:16;19.90;67.80
1526;DHT22;756;49.982;8.240;2022-09-06T00:03:44;19.90;67.80
1526;DHT22;756;49.982;8.240;2022-09-06T00:06:14;19.70;68.10
1526;DHT22;756;49.982;8.240;2022-09-06T00:08:43;19.60;68.10
1526;DHT22;756;49.982;8.240;2022-09-06T00:11:10;19.60;68.10
1526;DHT22;756;49.982;8.240;2022-09-06T00:13:37;19.50;67.90
1526;DHT22;756;49.982;8.240;2022-09-06T00:16:10;19.50;67.60
1526;DHT22;756;49.982;8.240;2022-09-06T00:18:38;19.60;67.70
1526;DHT22;756;49.982;8.240;2022-09-06T00:21:14;19.60;67.00
1526;DHT22;756;49.982;8.240;2022-09-06T00:23:41;19.70;67.70
1526;DHT22;756;49.982;8.240;2022-09-06T00:26:08;19.70;66.90
1526;DHT22;756;49.982;8.240;2022-09-06T00:28:35;19.70;67.50
1526;DHT22;756;49.982;8.240;2022-09-06T00:31:14;19.60;67.70
1526;DHT22;756;49.982;8.240;2022-09-06T00:33:42;19.50;68.20
1526;DHT22;756;49.982;8.240;2022-09-06T00:36:10;19.60;67.80
1526;DHT22;756;49.982;8.240;2022-09-06T00:38:37;19.70;67.60
1526;DHT22;756;49.982;8.240;2022-09-06T00:41:06;19.70;67.60
1526;DHT22;756;49.982;8.240;2022-09-06T00:43:33;19.80;67.70
1526;DHT22;756;49.982;8.240;2022-09-06T00:46:01;19.80;67.70
1526;DHT22;756;49.982;8.240;2022-09-06T00:48:29;19.80;67.80
1526;DHT22;756;49.982;8.240;2022-09-06T00:50:59;19.80;67.60
1526;DHT22;756;49.982;8.240;2022-09-06T00:53:27;19.70;68.30
1526;DHT22;756;49.982;8.240;2022-09-06T00:55:56;19.80;67.90
1526;DHT22;756;49.982;8.240;2022-09-06T00:58:24;19.80;68.20
1526;DHT22;756;49.982;8.240;2022-09-06T01:00:51;19.80;68.10
1526;DHT22;756;49.982;8.240;2022-09-06T01:03:17;19.70;68.70
1526;DHT22;756;49.982;8.240;2022-09-06T01:25:37;20.00;68.20
1526;DHT22;756;49.982;8.240;2022-09-06T01:28:33;20.00;68.70
1526;DHT22;756;49.982;8.240;2022-09-06T01:31:17;19.90;68.70
1526;DHT22;756;49.982;8.240;2022-09-06T01:36:46;19.90;65.70
1526;DHT22;756;49.982;8.240;2022-09-06T01:39:35;20.10;65.30
1526;DHT22;756;49.982;8.240;2022-09-06T01:42:11;20.20;66.90
1526;DHT22;756;49.982;8.240;2022-09-06T01:44:42;20.30;67.80
1526;DHT22;756;49.982;8.240;2022-09-06T01:47:58;20.50;68.60
1526;DHT22;756;49.982;8.240;2022-09-06T01:56:10;21.10;69.10
1526;DHT22;756;49.982;8.240;2022-09-06T02:01:39;21.30;69.30
1526;DHT22;756;49.982;8.240;2022-09-06T02:04:30;21.40;69.30
1526;DHT22;756;49.982;8.240;2022-09-06T02:07:09;21.50;69.20
1526;DHT22;756;49.982;8.240;2022-09-06T02:09:39;21.50;69.50
1526;DHT22;756;49.982;8.240;2022-09-06T02:12:09;21.50;69.70
1526;DHT22;756;49.982;8.240;2022-09-06T02:14:44;21.50;70.40
1526;DHT22;756;49.982;8.240;2022-09-06T02:17:15;21.60;71.00
1526;DHT22;756;49.982;8.240;2022-09-06T02:19:51;21.60;71.60
1526;DHT22;756;49.982;8.240;2022-09-06T02:22:22;21.60;72.50
1526;DHT22;756;49.982;8.240;2022-09-06T02:24:52;21.50;73.30
1526;DHT22;756;49.982;8.240;2022-09-06T02:27:19;21.40;73.70
1526;DHT22;756;49.982;8.240;2022-09-06T02:29:46;21.40;74.60
1526;DHT22;756;49.982;8.240;2022-09-06T02:32:21;21.20;75.50
1526;DHT22;756;49.982;8.240;2022-09-06T02:34:54;21.20;75.90
1526;DHT22;756;49.982;8.240;2022-09-06T02:37:25;21.10;76.50
1526;DHT22;756;49.982;8.240;2022-09-06T02:39:53;21.00;77.20
1526;DHT22;756;49.982;8.240;2022-09-06T02:42:22;20.90;77.70
1526;DHT22;756;49.982;8.240;2022-09-06T02:44:49;20.90;78.20
1526;DHT22;756;49.982;8.240;2022-09-06T02:47:16;20.80;78.50
1526;DHT22;756;49.982;8.240;2022-09-06T02:49:43;20.80;78.80
1526;DHT22;756;49.982;8.240;2022-09-06T02:52:10;20.80;78.80
1526;DHT22;756;49.982;8.240;2022-09-06T02:54:37;20.80;79.10
1526;DHT22;756;49.982;8.240;2022-09-06T02:57:04;20.70;79.50
1526;DHT22;756;49.982;8.240;2022-09-06T02:59:30;20.80;79.30
1526;DHT22;756;49.982;8.240;2022-09-06T03:01:57;20.80;79.50
1526;DHT22;756;49.982;8.240;2022-09-06T03:04:25;20.80;80.20
1526;DHT22;756;49.982;8.240;2022-09-06T03:06:52;20.80;79.90
1526;DHT22;756;49.982;8.240;2022-09-06T03:09:18;20.80;80.10
1526;DHT22;756;49.982;8.240;2022-09-06T03:11:45;20.70;80.40
1526;DHT22;756;49.982;8.240;2022-09-06T03:14:12;20.70;80.90
1526;DHT22;756;49.982;8.240;2022-09-06T03:16:39;20.60;81.40
1526;DHT22;756;49.982;8.240;2022-09-06T03:19:05;20.70;81.80
1526;DHT22;756;49.982;8.240;2022-09-06T03:21:32;20.80;81.80
1526;DHT22;756;49.982;8.240;2022-09-06T03:23:59;20.80;81.70
1526;DHT22;756;49.982;8.240;2022-09-06T03:26:25;20.70;81.80
1526;DHT22;756;49.982;8.240;2022-09-06T03:28:53;20.60;82.60
1526;DHT22;756;49.982;8.240;2022-09-06T03:31:20;20.40;83.30
1526;DHT22;756;49.982;8.240;2022-09-06T03:33:47;20.30;83.60
1526;DHT22;756;49.982;8.240;2022-09-06T03:36:14;20.30;83.60
1526;DHT22;756;49.982;8.240;2022-09-06T03:38:41;20.30;83.60
1526;DHT22;756;49.982;8.240;2022-09-06T03:41:07;20.30;83.10
1526;DHT22;756;49.982;8.240;2022-09-06T03:43:34;20.50;82.90
1526;DHT22;756;49.982;8.240;2022-09-06T03:46:01;20.50;82.70
1526;DHT22;756;49.982;8.240;2022-09-06T03:48:28;20.40;83.20
1526;DHT22;756;49.982;8.240;2022-09-06T03:50:57;20.30;84.10
1526;DHT22;756;49.982;8.240;2022-09-06T03:53:25;20.20;84.40
1526;DHT22;756;49.982;8.240;2022-09-06T03:55:54;20.40;83.90
1526;DHT22;756;49.982;8.240;2022-09-06T03:58:22;20.40;83.50
1526;DHT22;756;49.982;8.240;2022-09-06T04:01:08;20.30;84.10
1526;DHT22;756;49.982;8.240;2022-09-06T04:03:35;20.40;84.00
1526;DHT22;756;49.982;8.240;2022-09-06T04:06:04;20.40;83.60
1526;DHT22;756;49.982;8.240;2022-09-06T04:08:32;20.30;84.00
1526;DHT22;756;49.982;8.240;2022-09-06T04:10:58;20.20;84.40
1526;DHT22;756;49.982;8.240;2022-09-06T04:13:27;20.10;84.50
1526;DHT22;756;49.982;8.240;2022-09-06T04:15:54;20.10;84.40
1526;DHT22;756;49.982;8.240;2022-09-06T04:18:21;20.10;84.30
1526;DHT22;756;49.982;8.240;2022-09-06T04:20:52;20.10;83.60
1526;DHT22;756;49.982;8.240;2022-09-06T04:23:19;20.10;83.00
1526;DHT22;756;49.982;8.240;2022-09-06T04:25:47;20.10;82.80
1526;DHT22;756;49.982;8.240;2022-09-06T04:28:15;20.10;81.90
1526;DHT22;756;49.982;8.240;2022-09-06T04:30:45;20.10;82.00
1526;DHT22;756;49.982;8.240;2022-09-06T04:33:16;20.00;82.10
1526;DHT22;756;49.982;8.240;2022-09-06T04:35:51;20.00;82.10
1526;DHT22;756;49.982;8.240;2022-09-06T04:38:20;20.00;81.80
1526;DHT22;756;49.982;8.240;2022-09-06T04:40:47;19.90;82.10
1526;DHT22;756;49.982;8.240;2022-09-06T04:43:14;20.00;81.90
1526;DHT22;756;49.982;8.240;2022-09-06T04:45:42;19.90;82.60
1526;DHT22;756;49.982;8.240;2022-09-06T04:48:10;20.00;82.00
1526;DHT22;756;49.982;8.240;2022-09-06T04:50:37;20.00;81.70
1526;DHT22;756;49.982;8.240;2022-09-06T04:53:04;19.90;82.20
1526;DHT22;756;49.982;8.240;2022-09-06T04:55:32;19.70;82.70
1526;DHT22;756;49.982;8.240;2022-09-06T04:58:03;19.70;82.80
1526;DHT22;756;49.982;8.240;2022-09-06T05:00:31;19.60;82.80
1526;DHT22;756;49.982;8.240;2022-09-06T05:02:58;19.60;82.80
1526;DHT22;756;49.982;8.240;2022-09-06T05:05:25;19.80;82.20
1526;DHT22;756;49.982;8.240;2022-09-06T05:07:55;19.70;82.20
1526;DHT22;756;49.982;8.240;2022-09-06T05:10:24;19.80;81.70
1526;DHT22;756;49.982;8.240;2022-09-06T05:12:52;19.90;81.70
1526;DHT22;756;49.982;8.240;2022-09-06T05:15:21;19.90;81.60
1526;DHT22;756;49.982;8.240;2022-09-06T05:17:48;19.90;81.60
1526;DHT22;756;49.982;8.240;2022-09-06T05:20:15;19.80;81.70
1526;DHT22;756;49.982;8.240;2022-09-06T05:22:41;19.80;82.30
1526;DHT22;756;49.982;8.240;2022-09-06T05:25:09;19.80;82.30
1526;DHT22;756;49.982;8.240;2022-09-06T05:27:35;19.80;82.20
1526;DHT22;756;49.982;8.240;2022-09-06T05:30:03;19.70;82.20
1526;DHT22;756;49.982;8.240;2022-09-06T05:32:30;19.70;82.30
1526;DHT22;756;49.982;8.240;2022-09-06T05:34:56;19.80;81.80
1526;DHT22;756;49.982;8.240;2022-09-06T05:37:23;19.60;82.30
1526;DHT22;756;49.982;8.240;2022-09-06T05:39:50;19.70;82.40
1526;DHT22;756;49.982;8.240;2022-09-06T05:42:17;19.70;82.00
1526;DHT22;756;49.982;8.240;2022-09-06T05:44:45;19.80;81.90
1526;DHT22;756;49.982;8.240;2022-09-06T05:47:11;19.80;81.80
1526;DHT22;756;49.982;8.240;2022-09-06T05:49:38;19.80;81.80
1526;DHT22;756;49.982;8.240;2022-09-06T05:52:05;19.70;82.30
1526;DHT22;756;49.982;8.240;2022-09-06T05:54:32;19.70;82.60
1526;DHT22;756;49.982;8.240;2022-09-06T05:56:59;19.80;82.50
1526;DHT22;756;49.982;8.240;2022-09-06T05:59:25;19.90;82.20
1526;DHT22;756;49.982;8.240;2022-09-06T06:01:52;19.90;82.00
1526;DHT22;756;49.982;8.240;2022-09-06T06:04:20;19.90;81.80
1526;DHT22;756;49.982;8.240;2022-09-06T06:06:47;19.90;82.00
1526;DHT22;756;49.982;8.240;2022-09-06T06:09:15;20.00;82.00
1526;DHT22;756;49.982;8.240;2022-09-06T06:11:42;20.00;81.80
1526;DHT22;756;49.982;8.240;2022-09-06T06:14:09;20.00;82.00
1526;DHT22;756;49.982;8.240;2022-09-06T06:16:36;20.00;82.20
1526;DHT22;756;49.982;8.240;2022-09-06T06:19:03;20.00;82.10
1526;DHT22;756;49.982;8.240;2022-09-06T06:21:31;20.00;82.20
1526;DHT22;756;49.982;8.240;2022-09-06T06:24:00;19.90;83.10
1526;DHT22;756;49.982;8.240;2022-09-06T06:26:30;20.00;83.30
1526;DHT22;756;49.982;8.240;2022-09-06T06:28:58;20.00;82.80
1526;DHT22;756;49.982;8.240;2022-09-06T06:31:31;20.00;82.80
1526;DHT22;756;49.982;8.240;2022-09-06T06:33:58;20.10;82.70
1526;DHT22;756;49.982;8.240;2022-09-06T06:36:29;20.20;82.70
1526;DHT22;756;49.982;8.240;2022-09-06T06:38:57;20.20;82.70
1526;DHT22;756;49.982;8.240;2022-09-06T06:41:26;20.20;82.70
1526;DHT22;756;49.982;8.240;2022-09-06T06:43:55;20.20;82.60
1526;DHT22;756;49.982;8.240;2022-09-06T06:46:24;20.30;82.60
1526;DHT22;756;49.982;8.240;2022-09-06T06:48:51;20.30;82.70
1526;DHT22;756;49.982;8.240;2022-09-06T06:51:22;20.30;82.80
1526;DHT22;756;49.982;8.240;2022-09-06T06:53:49;20.30;82.90
1526;DHT22;756;49.982;8.240;2022-09-06T06:56:20;20.40;82.80
1526;DHT22;756;49.982;8.240;2022-09-06T06:58:49;20.40;82.60
1526;DHT22;756;49.982;8.240;2022-09-06T07:01:19;20.40;82.60
1526;DHT22;756;49.982;8.240;2022-09-06T07:03:46;20.40;82.70
1526;DHT22;756;49.982;8.240;2022-09-06T07:06:14;20.50;82.50
1526;DHT22;756;49.982;8.240;2022-09-06T07:08:41;20.50;82.60
1526;DHT22;756;49.982;8.240;2022-09-06T07:11:10;20.60;82.30
1526;DHT22;756;49.982;8.240;2022-09-06T07:13:37;20.60;82.20
1526;DHT22;756;49.982;8.240;2022-09-06T07:16:19;20.60;82.10
1526;DHT22;756;49.982;8.240;2022-09-06T07:18:50;20.70;81.70
1526;DHT22;756;49.982;8.240;2022-09-06T07:21:19;20.70;81.60
1526;DHT22;756;49.982;8.240;2022-09-06T07:24:01;20.70;81.60
1526;DHT22;756;49.982;8.240;2022-09-06T07:26:34;20.70;81.20
1526;DHT22;756;49.982;8.240;2022-09-06T07:29:03;20.70;81.10
1526;DHT22;756;49.982;8.240;2022-09-06T07:31:30;20.70;81.20
1526;DHT22;756;49.982;8.240;2022-09-06T07:34:17;20.90;81.50
1526;DHT22;756;49.982;8.240;2022-09-06T07:36:44;20.90;81.20
1526;DHT22;756;49.982;8.240;2022-09-06T07:39:11;21.00;81.20
1526;DHT22;756;49.982;8.240;2022-09-06T07:41:38;21.00;81.00
1526;DHT22;756;49.982;8.240;2022-09-06T07:44:04;21.00;80.70
1526;DHT22;756;49.982;8.240;2022-09-06T07:46:31;21.10;80.40
1526;DHT22;756;49.982;8.240;2022-09-06T07:48:58;21.10;79.90
1526;DHT22;756;49.982;8.240;2022-09-06T07:51:24;21.10;79.10
1526;DHT22;756;49.982;8.240;2022-09-06T07:53:53;21.20;79.40
1526;DHT22;756;49.982;8.240;2022-09-06T07:56:43;21.30;79.60
1526;DHT22;756;49.982;8.240;2022-09-06T07:59:09;21.40;79.40
1526;DHT22;756;49.982;8.240;2022-09-06T08:01:37;21.40;79.00
1526;DHT22;756;49.982;8.240;2022-09-06T08:04:12;21.50;78.40
1526;DHT22;756;49.982;8.240;2022-09-06T08:06:45;21.60;78.30
1526;DHT22;756;49.982;8.240;2022-09-06T08:09:32;21.70;78.20
1526;DHT22;756;49.982;8.240;2022-09-06T08:11:59;21.90;77.40
1526;DHT22;756;49.982;8.240;2022-09-06T08:14:32;21.90;76.90
1526;DHT22;756;49.982;8.240;2022-09-06T08:16:59;22.00;76.70
1526;DHT22;756;49.982;8.240;2022-09-06T08:19:26;22.10;76.10
1526;DHT22;756;49.982;8.240;2022-09-06T08:21:53;22.20;75.40
1526;DHT22;756;49.982;8.240;2022-09-06T08:24:23;22.30;75.10
1526;DHT22;756;49.982;8.240;2022-09-06T08:26:50;22.40;75.00
1526;DHT22;756;49.982;8.240;2022-09-06T08:29:17;22.50;74.30
1526;DHT22;756;49.982;8.240;2022-09-06T08:31:45;22.50;73.70
1526;DHT22;756;49.982;8.240;2022-09-06T08:34:12;22.40;73.50
1526;DHT22;756;49.982;8.240;2022-09-06T08:36:41;22.50;73.60
1526;DHT22;756;49.982;8.240;2022-09-06T08:39:09;22.60;73.80
1526;DHT22;756;49.982;8.240;2022-09-06T08:42:19;22.70;73.30
1526;DHT22;756;49.982;8.240;2022-09-06T08:44:49;22.80;73.10
1526;DHT22;756;49.982;8.240;2022-09-06T08:47:19;23.00;72.60
1526;DHT22;756;49.982;8.240;2022-09-06T08:49:51;23.10;72.00
1526;DHT22;756;49.982;8.240;2022-09-06T08:55:53;23.30;71.50
1526;DHT22;756;49.982;8.240;2022-09-06T09:00:58;23.40;70.10
1526;DHT22;756;49.982;8.240;2022-09-06T09:03:32;23.50;69.90
1526;DHT22;756;49.982;8.240;2022-09-06T09:05:59;23.60;69.20
1526;DHT22;756;49.982;8.240;2022-09-06T09:11:17;23.70;68.30
1526;DHT22;756;49.982;8.240;2022-09-06T09:16:29;23.90;67.60
1526;DHT22;756;49.982;8.240;2022-09-06T09:18:59;24.00;67.20
1526;DHT22;756;49.982;8.240;2022-09-06T09:21:27;24.00;67.40
1526;DHT22;756;49.982;8.240;2022-09-06T09:24:08;24.00;67.60
1526;DHT22;756;49.982;8.240;2022-09-06T09:27:05;24.10;67.30
1526;DHT22;756;49.982;8.240;2022-09-06T09:32:43;24.20;67.40
1526;DHT22;756;49.982;8.240;2022-09-06T09:38:30;24.30;67.10
1526;DHT22;756;49.982;8.240;2022-09-06T09:40:50;24.30;66.80
1526;DHT22;756;49.982;8.240;2022-09-06T09:49:05;24.40;66.50
1526;DHT22;756;49.982;8.240;2022-09-06T09:51:38;24.40;66.10
1526;DHT22;756;49.982;8.240;2022-09-06T09:54:11;24.50;66.10
1526;DHT22;756;49.982;8.240;2022-09-06T09:56:51;24.60;65.70
1526;DHT22;756;49.982;8.240;2022-09-06T10:01:48;24.70;65.60
1526;DHT22;756;49.982;8.240;2022-09-06T10:04:35;24.80;65.00
1526;DHT22;756;49.982;8.240;2022-09-06T10:07:22;24.90;65.00
1526;DHT22;756;49.982;8.240;2022-09-06T10:12:42;25.30;64.20
1526;DHT22;756;49.982;8.240;2022-09-06T10:15:31;25.30;63.00
1526;DHT22;756;49.982;8.240;2022-09-06T10:17:58;25.70;62.80
1526;DHT22;756;49.982;8.240;2022-09-06T10:20:38;25.90;62.00
1526;DHT22;756;49.982;8.240;2022-09-06T10:23:16;26.10;61.60
1526;DHT22;756;49.982;8.240;2022-09-06T10:26:11;26.40;60.70
1526;DHT22;756;49.982;8.240;2022-09-06T10:28:41;26.80;59.40
1526;DHT22;756;49.982;8.240;2022-09-06T10:37:10;28.90;54.80
1526;DHT22;756;49.982;8.240;2022-09-06T10:39:54;29.60;52.50
1526;DHT22;756;49.982;8.240;2022-09-06T10:42:51;29.50;52.60
1526;DHT22;756;49.982;8.240;2022-09-06T10:48:20;28.60;54.40
1526;DHT22;756;49.982;8.240;2022-09-06T10:56:28;29.40;53.60
1526;DHT22;756;49.982;8.240;2022-09-06T10:59:19;30.80;49.00
1526;DHT22;756;49.982;8.240;2022-09-06T11:02:32;31.80;47.60
1526;DHT22;756;49.982;8.240;2022-09-06T11:08:02;31.40;47.80
1526;DHT22;756;49.982;8.240;2022-09-06T11:10:51;30.60;49.10
1526;DHT22;756;49.982;8.240;2022-09-06T11:13:26;29.80;50.10
1526;DHT22;756;49.982;8.240;2022-09-06T11:16:06;29.20;51.70
1526;DHT22;756;49.982;8.240;2022-09-06T11:26:33;27.70;54.90
1526;DHT22;756;49.982;8.240;2022-09-06T11:29:16;27.50;55.60
1526;DHT22;756;49.982;8.240;2022-09-06T11:31:56;27.20;56.40
1526;DHT22;756;49.982;8.240;2022-09-06T11:34:52;27.10;56.80
1526;DHT22;756;49.982;8.240;2022-09-06T11:37:33;26.90;56.80
1526;DHT22;756;49.982;8.240;2022-09-06T11:40:20;26.70;57.40
1526;DHT22;756;49.982;8.240;2022-09-06T11:53:24;26.30;59.30
1526;DHT22;756;49.982;8.240;2022-09-06T11:58:45;26.20;59.00
1526;DHT22;756;49.982;8.240;2022-09-06T12:06:40;26.30;57.90
1526;DHT22;756;49.982;8.240;2022-09-06T12:09:39;26.30;57.90
1526;DHT22;756;49.982;8.240;2022-09-06T12:12:09;26.20;57.90
1526;DHT22;756;49.982;8.240;2022-09-06T12:14:43;26.30;57.80
1526;DHT22;756;49.982;8.240;2022-09-06T12:19:52;26.20;56.80
1526;DHT22;756;49.982;8.240;2022-09-06T12:25:50;26.30;56.20
1526;DHT22;756;49.982;8.240;2022-09-06T12:28:03;26.40;57.00
1526;DHT22;756;49.982;8.240;2022-09-06T12:35:45;26.40;55.30
1526;DHT22;756;49.982;8.240;2022-09-06T12:38:32;26.30;55.90
1526;DHT22;756;49.982;8.240;2022-09-06T12:40:58;26.30;56.00
1526;DHT22;756;49.982;8.240;2022-09-06T12:43:26;26.30;55.50
1526;DHT22;756;49.982;8.240;2022-09-06T12:45:53;26.20;55.60
1526;DHT22;756;49.982;8.240;2022-09-06T12:48:29;26.20;55.30
1526;DHT22;756;49.982;8.240;2022-09-06T12:51:19;26.20;55.00
1526;DHT22;756;49.982;8.240;2022-09-06T12:53:51;26.20;55.60
1526;DHT22;756;49.982;8.240;2022-09-06T12:56:21;26.20;55.80
1526;DHT22;756;49.982;8.240;2022-09-06T12:58:48;26.20;56.00
1526;DHT22;756;49.982;8.240;2022-09-06T13:01:33;26.20;55.80
1526;DHT22;756;49.982;8.240;2022-09-06T13:04:06;26.30;55.30
1526;DHT22;756;49.982;8.240;2022-09-06T13:06:41;26.30;55.70
1526;DHT22;756;49.982;8.240;2022-09-06T13:09:11;26.20;55.90
1526;DHT22;756;49.982;8.240;2022-09-06T13:11:44;26.30;55.70
1526;DHT22;756;49.982;8.240;2022-09-06T13:14:16;26.40;56.30
1526;DHT22;756;49.982;8.240;2022-09-06T13:16:48;26.50;56.80
1526;DHT22;756;49.982;8.240;2022-09-06T13:19:37;26.50;56.50
1526;DHT22;756;49.982;8.240;2022-09-06T13:22:06;26.50;56.30
1526;DHT22;756;49.982;8.240;2022-09-06T13:27:21;26.50;56.90
1526;DHT22;756;49.982;8.240;2022-09-06T13:32:28;26.60;56.70
1526;DHT22;756;49.982;8.240;2022-09-06T13:34:58;26.60;56.70
1526;DHT22;756;49.982;8.240;2022-09-06T13:37:27;26.60;56.70
1526;DHT22;756;49.982;8.240;2022-09-06T13:39:54;26.60;57.20
1526;DHT22;756;49.982;8.240;2022-09-06T13:42:34;26.60;57.40
1526;DHT22;756;49.982;8.240;2022-09-06T13:45:20;26.60;57.50
1526;DHT22;756;49.982;8.240;2022-09-06T13:47:49;26.70;57.80
1526;DHT22;756;49.982;8.240;2022-09-06T13:50:15;26.70;57.40
1526;DHT22;756;49.982;8.240;2022-09-06T13:52:42;26.70;57.10
1526;DHT22;756;49.982;8.240;2022-09-06T13:55:13;26.70;57.30
1526;DHT22;756;49.982;8.240;2022-09-06T13:57:41;26.70;57.30
1526;DHT22;756;49.982;8.240;2022-09-06T14:00:08;26.70;57.30
1526;DHT22;756;49.982;8.240;2022-09-06T14:02:35;26.80;57.60
1526;DHT22;756;49.982;8.240;2022-09-06T14:05:02;26.80;57.60
1526;DHT22;756;49.982;8.240;2022-09-06T14:07:29;26.80;57.60
1526;DHT22;756;49.982;8.240;2022-09-06T14:09:56;26.90;57.30
1526;DHT22;756;49.982;8.240;2022-09-06T14:12:22;26.90;57.40
1526;DHT22;756;49.982;8.240;2022-09-06T14:14:49;26.90;57.10
1526;DHT22;756;49.982;8.240;2022-09-06T14:17:16;26.90;56.80
1526;DHT22;756;49.982;8.240;2022-09-06T14:19:43;27.00;57.00
1526;DHT22;756;49.982;8.240;2022-09-06T14:22:09;27.00;57.40
1526;DHT22;756;49.982;8.240;2022-09-06T14:24:36;27.10;57.50
1526;DHT22;756;49.982;8.240;2022-09-06T14:27:03;27.10;57.10
1526;DHT22;756;49.982;8.240;2022-09-06T14:29:32;27.20;56.50
1526;DHT22;756;49.982;8.240;2022-09-06T14:32:00;27.20;56.20
1526;DHT22;756;49.982;8.240;2022-09-06T14:34:27;27.10;56.20
1526;DHT22;756;49.982;8.240;2022-09-06T14:36:55;27.20;56.00
1526;DHT22;756;49.982;8.240;2022-09-06T14:39:21;27.20;55.90
1526;DHT22;756;49.982;8.240;2022-09-06T14:41:48;27.20;55.60
1526;DHT22;756;49.982;8.240;2022-09-06T14:44:16;27.20;55.20
1526;DHT22;756;49.982;8.240;2022-09-06T14:46:43;27.20;55.10
1526;DHT22;756;49.982;8.240;2022-09-06T14:49:09;27.20;55.30
1526;DHT22;756;49.982;8.240;2022-09-06T14:51:37;27.20;55.60
1526;DHT22;756;49.982;8.240;2022-09-06T14:54:09;27.20;55.70
1526;DHT22;756;49.982;8.240;2022-09-06T14:56:37;27.10;55.10
1526;DHT22;756;49.982;8.240;2022-09-06T14:59:06;27.10;54.70
1526;DHT22;756;49.982;8.240;2022-09-06T15:01:33;27.10;54.70
1526;DHT22;756;49.982;8.240;2022-09-06T15:04:06;27.10;54.70
1526;DHT22;756;49.982;8.240;2022-09-06T15:06:34;27.10;54.80
1526;DHT22;756;49.982;8.240;2022-09-06T15:09:02;27.10;55.00
1526;DHT22;756;49.982;8.240;2022-09-06T15:11:50;27.10;55.00
1526;DHT22;756;49.982;8.240;2022-09-06T15:14:22;27.10;54.70
1526;DHT22;756;49.982;8.240;2022-09-06T15:16:51;27.10;54.80
1526;DHT22;756;49.982;8.240;2022-09-06T15:19:22;27.10;55.30
1526;DHT22;756;49.982;8.240;2022-09-06T15:21:50;27.00;55.40
1526;DHT22;756;49.982;8.240;2022-09-06T15:24:17;27.00;55.30
1526;DHT22;756;49.982;8.240;2022-09-06T15:26:44;27.00;55.30
1526;DHT22;756;49.982;8.240;2022-09-06T15:29:12;27.00;55.30
1526;DHT22;756;49.982;8.240;2022-09-06T15:31:40;26.90;55.50
1526;DHT22;756;49.982;8.240;2022-09-06T15:34:08;26.90;55.70
1526;DHT22;756;49.982;8.240;2022-09-06T15:36:36;26.80;55.60
1526;DHT22;756;49.982;8.240;2022-09-06T15:39:04;26.80;55.70
1526;DHT22;756;49.982;8.240;2022-09-06T15:41:34;26.80;55.80
1526;DHT22;756;49.982;8.240;2022-09-06T15:44:13;26.80;55.40
1526;DHT22;756;49.982;8.240;2022-09-06T15:46:49;26.80;55.20
1526;DHT22;756;49.982;8.240;2022-09-06T15:49:20;26.80;55.30
1526;DHT22;756;49.982;8.240;2022-09-06T15:51:54;26.70;55.60
1526;DHT22;756;49.982;8.240;2022-09-06T15:54:21;26.70;55.10
1526;DHT22;756;49.982;8.240;2022-09-06T15:57:07;26.60;53.90
1526;DHT22;756;49.982;8.240;2022-09-06T15:59:33;26.60;52.90
1526;DHT22;756;49.982;8.240;2022-09-06T16:02:00;26.50;51.80
1526;DHT22;756;49.982;8.240;2022-09-06T16:04:27;26.50;51.70
1526;DHT22;756;49.982;8.240;2022-09-06T16:06:54;26.40;51.30
1526;DHT22;756;49.982;8.240;2022-09-06T16:09:28;26.40;51.00
1526;DHT22;756;49.982;8.240;2022-09-06T16:11:55;26.30;54.20
1526;DHT22;756;49.982;8.240;2022-09-06T16:14:22;26.20;55.50
1526;DHT22;756;49.982;8.240;2022-09-06T16:16:49;26.10;53.30
1526;DHT22;756;49.982;8.240;2022-09-06T16:19:19;25.90;51.60
1526;DHT22;756;49.982;8.240;2022-09-06T16:21:46;25.80;52.30
1526;DHT22;756;49.982;8.240;2022-09-06T16:24:13;25.70;54.80
1526;DHT22;756;49.982;8.240;2022-09-06T16:26:43;25.60;57.30
1526;DHT22;756;49.982;8.240;2022-09-06T16:29:11;25.50;56.70
1526;DHT22;756;49.982;8.240;2022-09-06T16:31:39;25.40;58.30
1526;DHT22;756;49.982;8.240;2022-09-06T16:34:10;25.20;61.10
1526;DHT22;756;49.982;8.240;2022-09-06T16:36:38;25.10;64.60
1526;DHT22;756;49.982;8.240;2022-09-06T16:39:06;24.90;63.60
1526;DHT22;756;49.982;8.240;2022-09-06T16:44:10;24.30;63.30
1526;DHT22;756;49.982;8.240;2022-09-06T16:46:46;24.30;62.70
1526;DHT22;756;49.982;8.240;2022-09-06T16:49:14;24.20;59.90
1526;DHT22;756;49.982;8.240;2022-09-06T16:51:42;24.10;62.10
1526;DHT22;756;49.982;8.240;2022-09-06T16:54:09;23.90;65.80
1526;DHT22;756;49.982;8.240;2022-09-06T16:56:36;23.70;66.90
1526;DHT22;756;49.982;8.240;2022-09-06T16:59:06;23.80;66.00
1526;DHT22;756;49.982;8.240;2022-09-06T17:01:38;23.80;68.70
1526;DHT22;756;49.982;8.240;2022-09-06T17:04:08;23.80;69.70
1526;DHT22;756;49.982;8.240;2022-09-06T17:06:35;23.50;74.20
1526;DHT22;756;49.982;8.240;2022-09-06T17:09:14;23.20;76.80
1526;DHT22;756;49.982;8.240;2022-09-06T17:11:41;22.90;77.60
1526;DHT22;756;49.982;8.240;2022-09-06T17:14:08;22.60;80.40
1526;DHT22;756;49.982;8.240;2022-09-06T17:16:35;22.30;83.30
1526;DHT22;756;49.982;8.240;2022-09-06T17:19:20;22.20;83.90
1526;DHT22;756;49.982;8.240;2022-09-06T17:21:47;22.10;84.40
1526;DHT22;756;49.982;8.240;2022-09-06T17:24:14;22.10;84.40
1526;DHT22;756;49.982;8.240;2022-09-06T17:26:41;22.00;84.70
1526;DHT22;756;49.982;8.240;2022-09-06T17:29:08;21.80;85.70
1526;DHT22;756;49.982;8.240;2022-09-06T17:31:36;21.30;87.90
1526;DHT22;756;49.982;8.240;2022-09-06T17:34:04;21.00;89.80
1526;DHT22;756;49.982;8.240;2022-09-06T17:36:31;20.90;89.80
1526;DHT22;756;49.982;8.240;2022-09-06T17:39:10;20.70;89.80
1526;DHT22;756;49.982;8.240;2022-09-06T17:41:41;20.70;89.80
1526;DHT22;756;49.982;8.240;2022-09-06T17:44:12;20.80;89.80
1526;DHT22;756;49.982;8.240;2022-09-06T17:46:40;20.90;89.80
1526;DHT22;756;49.982;8.240;2022-09-06T17:49:27;20.70;89.80
1526;DHT22;756;49.982;8.240;2022-09-06T17:51:54;20.40;89.80
1526;DHT22;756;49.982;8.240;2022-09-06T17:54:21;20.30;89.80
1526;DHT22;756;49.982;8.240;2022-09-06T17:56:47;20.20;89.80
1526;DHT22;756;49.982;8.240;2022-09-06T17:59:15;20.40;89.80
1526;DHT22;756;49.982;8.240;2022-09-06T18:01:43;20.50;89.80
1526;DHT22;756;49.982;8.240;2022-09-06T18:04:12;20.60;89.80
1526;DHT22;756;49.982;8.240;2022-09-06T18:06:41;20.60;89.30
1526;DHT22;756;49.982;8.240;2022-09-06T18:09:11;20.60;88.80
1526;DHT22;756;49.982;8.240;2022-09-06T18:11:40;20.40;88.50
1526;DHT22;756;49.982;8.240;2022-09-06T18:14:10;20.50;88.60
1526;DHT22;756;49.982;8.240;2022-09-06T18:16:38;20.30;87.50
1526;DHT22;756;49.982;8.240;2022-09-06T18:19:07;20.50;88.10
1526;DHT22;756;49.982;8.240;2022-09-06T18:21:36;20.60;88.30
1526;DHT22;756;49.982;8.240;2022-09-06T18:24:04;20.70;87.70
1526;DHT22;756;49.982;8.240;2022-09-06T18:26:32;20.80;87.50
1526;DHT22;756;49.982;8.240;2022-09-06T18:28:58;20.80;87.70
1526;DHT22;756;49.982;8.240;2022-09-06T18:31:26;20.80;87.30
1526;DHT22;756;49.982;8.240;2022-09-06T18:33:54;20.70;87.30
1526;DHT22;756;49.982;8.240;2022-09-06T18:36:23;20.60;87.50
1526;DHT22;756;49.982;8.240;2022-09-06T18:38:59;20.70;87.70
1526;DHT22;756;49.982;8.240;2022-09-06T18:41:28;20.60;87.90
1526;DHT22;756;49.982;8.240;2022-09-06T18:44:13;20.60;88.10